sensor_id;sensor_type;location;lat;lon;timestamp;pressure;altitude;pressure_sealevel;temperature;humidity
29909;BME280;36247;51.952;6.146;2022-10-13T00:02:13;101803.91;;;9.40;100.00
29909;BME280;36247;51.952;6.146;2022-10-13T00:04:39;101801.41;;;9.44;100.00
29909;BME280;36247;51.952;6.146;2022-10-13T00:07:04;101790.88;;;9.46;100.00
29909;BME280;36247;51.952;6.146;2022-10-13T00:09:29;101792.13;;;9.57;100.00
29909;BME280;36247;51.952;6.146;2022-10-13T00:11:56;101794.84;;;9.59;100.00
29909;BME280;36247;51.952;6.146;2022-10-13T00:14:22;101794.84;;;9.59;100.00
29909;BME280;36247;51.952;6.146;2022-10-13T00:16:47;101801.16;;;9.64;100.00
29909;BME280;36247;51.952;6.146;2022-10-13T00:19:13;101791.66;;;9.69;100.00
29909;BME280;36247;51.952;6.146;2022-10-13T00:21:38;101785.53;;;9.71;100.00
29909;BME280;36247;51.952;6.146;2022-10-13T00:24:04;101784.94;;;9.80;100.00
29909;BME280;36247;51.952;6.146;2022-10-13T00:26:29;101785.91;;;9.82;100.00
29909;BME280;36247;51.952;6.146;2022-10-13T00:28:55;101777.91;;;9.81;100.00
29909;BME280;36247;51.952;6.146;2022-10-13T00:31:26;101771.75;;;9.82;100.00
29909;BME280;36247;51.952;6.146;2022-10-13T00:33:52;101773.75;;;9.89;100.00
29909;BME280;36247;51.952;6.146;2022-10-13T00:36:20;101763.16;;;9.89;100.00
29909;BME280;36247;51.952;6.146;2022-10-13T00:38:46;101759.88;;;9.96;100.00
29909;BME280;36247;51.952;6.146;2022-10-13T00:41:12;101759.91;;;9.98;100.00
29909;BME280;36247;51.952;6.146;2022-10-13T00:43:59;101758.97;;;9.96;100.00
29909;BME280;36247;51.952;6.146;2022-10-13T00:46:36;101756.28;;;9.94;100.00
29909;BME280;36247;51.952;6.146;2022-10-13T00:49:12;101760.94;;;10.03;100.00
29909;BME280;36247;51.952;6.146;2022-10-13T00:51:46;101758.28;;;10.03;100.00
29909;BME280;36247;51.952;6.146;2022-10-13T00:54:17;101746.72;;;9.99;100.00
29909;BME280;36247;51.952;6.146;2022-10-13T00:56:46;101752.75;;;9.95;100.00
29909;BME280;36247;51.952;6.146;2022-10-13T00:59:19;101751.25;;;10.03;100.00
29909;BME280;36247;51.952;6.146;2022-10-13T01:01:50;101756.69;;;10.08;100.00
29909;BME280;36247;51.952;6.146;2022-10-13T01:04:16;101761.25;;;10.12;100.00
29909;BME280;36247;51.952;6.146;2022-10-13T01:06:44;101749.78;;;10.13;100.00
29909;BME280;36247;51.952;6.146;2022-10-13T01:09:13;101761.38;;;10.17;100.00
29909;BME280;36247;51.952;6.146;2022-10-13T01:14:41;101748.31;;;10.23;100.00
29909;BME280;36247;51.952;6.146;2022-10-13T01:17:35;101754.53;;;10.25;100.00
29909;BME280;36247;51.952;6.146;2022-10-13T01:26:02;101745.22;;;10.36;100.00
29909;BME280;36247;51.952;6.146;2022-10-13T01:34:26;101751.44;;;10.38;100.00
29909;BME280;36247;51.952;6.146;2022-10-13T01:36:58;101745.25;;;10.38;100.00
29909;BME280;36247;51.952;6.146;2022-10-13T01:39:40;101748.84;;;10.40;100.00
29909;BME280;36247;51.952;6.146;2022-10-13T01:42:14;101746.19;;;10.40;100.00
29909;BME280;36247;51.952;6.146;2022-10-13T01:44:51;101749.84;;;10.44;100.00
29909;BME280;36247;51.952;6.146;2022-10-13T01:47:19;101742.81;;;10.46;100.00
29909;BME280;36247;51.952;6.146;2022-10-13T01:49:49;101741.91;;;10.44;100.00
29909;BME280;36247;51.952;6.146;2022-10-13T01:52:17;101740.97;;;10.43;100.00
29909;BME280;36247;51.952;6.146;2022-10-13T01:54:49;101740.13;;;10.44;100.00
29909;BME280;36247;51.952;6.146;2022-10-13T01:57:35;101734.78;;;10.43;100.00
29909;BME280;36247;51.952;6.146;2022-10-13T02:00:07;101739.19;;;10.42;100.00
29909;BME280;36247;51.952;6.146;2022-10-13T02:08:06;101739.19;;;10.42;100.00
29909;BME280;36247;51.952;6.146;2022-10-13T02:10:40;101738.28;;;10.41;100.00
29909;BME280;36247;51.952;6.146;2022-10-13T02:13:12;101726.97;;;10.47;100.00
29909;BME280;36247;51.952;6.146;2022-10-13T02:15:46;101735.03;;;10.52;100.00
29909;BME280;36247;51.952;6.146;2022-10-13T02:18:16;101736.69;;;10.47;100.00
29909;BME280;36247;51.952;6.146;2022-10-13T02:20:43;101725.25;;;10.49;100.00
29909;BME280;36247;51.952;6.146;2022-10-13T02:23:13;101721.72;;;10.49;100.00
29909;BME280;36247;51.952;6.146;2022-10-13T02:25:40;101729.59;;;10.46;100.00
29909;BME280;36247;51.952;6.146;2022-10-13T02:28:07;101724.28;;;10.46;100.00
29909;BME280;36247;51.952;6.146;2022-10-13T02:30:41;101713.59;;;10.43;100.00
29909;BME280;36247;51.952;6.146;2022-10-13T02:33:08;101718.72;;;10.36;100.00
29909;BME280;36247;51.952;6.146;2022-10-13T02:35:36;101724.94;;;10.38;100.00
29909;BME280;36247;51.952;6.146;2022-10-13T02:38:02;101711.88;;;10.45;100.00
29909;BME280;36247;51.952;6.146;2022-10-13T02:40:27;101708.31;;;10.43;100.00
29909;BME280;36247;51.952;6.146;2022-10-13T02:42:53;101709.97;;;10.39;100.00
29909;BME280;36247;51.952;6.146;2022-10-13T02:45:19;101707.38;;;10.40;100.00
29909;BME280;36247;51.952;6.146;2022-10-13T02:47:45;101696.97;;;10.48;100.00
29909;BME280;36247;51.952;6.146;2022-10-13T02:50:10;101711.97;;;10.48;100.00
29909;BME280;36247;51.952;6.146;2022-10-13T02:52:36;101710.22;;;10.48;100.00
29909;BME280;36247;51.952;6.146;2022-10-13T02:55:03;101704.75;;;10.42;100.00
29909;BME280;36247;51.952;6.146;2022-10-13T02:57:29;101698.75;;;10.49;100.00
29909;BME280;36247;51.952;6.146;2022-10-13T02:59:56;101701.50;;;10.52;100.00
29909;BME280;36247;51.952;6.146;2022-10-13T03:02:25;101691.81;;;10.53;100.00
29909;BME280;36247;51.952;6.146;2022-10-13T03:04:51;101694.53;;;10.56;100.00
29909;BME280;36247;51.952;6.146;2022-10-13T03:07:17;101683.91;;;10.54;100.00
29909;BME280;36247;51.952;6.146;2022-10-13T03:09:42;101682.06;;;10.52;100.00
29909;BME280;36247;51.952;6.146;2022-10-13T03:12:08;101683.78;;;10.50;100.00
29909;BME280;36247;51.952;6.146;2022-10-13T03:14:34;101691.09;;;10.58;100.00
29909;BME280;36247;51.952;6.146;2022-10-13T03:16:59;101677.88;;;10.60;100.00
29909;BME280;36247;51.952;6.146;2022-10-13T03:19:25;101673.47;;;10.61;100.00
29909;BME280;36247;51.952;6.146;2022-10-13T03:21:50;101664.63;;;10.60;100.00
29909;BME280;36247;51.952;6.146;2022-10-13T03:24:16;101672.50;;;10.57;100.00
29909;BME280;36247;51.952;6.146;2022-10-13T03:26:42;101669.09;;;10.63;100.00
29909;BME280;36247;51.952;6.146;2022-10-13T03:29:15;101670.94;;;10.65;100.00
29909;BME280;36247;51.952;6.146;2022-10-13T03:31:41;101670.94;;;10.65;100.00
29909;BME280;36247;51.952;6.146;2022-10-13T03:34:11;101670.97;;;10.67;100.00
29909;BME280;36247;51.952;6.146;2022-10-13T03:36:37;101666.56;;;10.67;100.00
29909;BME280;36247;51.952;6.146;2022-10-13T03:39:03;101664.91;;;10.71;100.00
29909;BME280;36247;51.952;6.146;2022-10-13T03:41:29;101651.81;;;10.77;100.00
29909;BME280;36247;51.952;6.146;2022-10-13T03:43:54;101638.50;;;10.74;100.00
29909;BME280;36247;51.952;6.146;2022-10-13T03:46:21;101644.59;;;10.71;100.00
29909;BME280;36247;51.952;6.146;2022-10-13T03:48:49;101640.78;;;10.60;100.00
29909;BME280;36247;51.952;6.146;2022-10-13T03:51:17;101628.47;;;10.62;100.00
29909;BME280;36247;51.952;6.146;2022-10-13T03:53:48;101632.91;;;10.63;100.00
29909;BME280;36247;51.952;6.146;2022-10-13T03:56:16;101642.69;;;10.66;100.00
29909;BME280;36247;51.952;6.146;2022-10-13T03:58:49;101639.28;;;10.71;100.00
29909;BME280;36247;51.952;6.146;2022-10-13T04:01:19;101640.25;;;10.73;100.00
29909;BME280;36247;51.952;6.146;2022-10-13T04:03:45;101641.13;;;10.74;100.00
29909;BME280;36247;51.952;6.146;2022-10-13T04:06:11;101646.50;;;10.77;100.00
29909;BME280;36247;51.952;6.146;2022-10-13T04:08:36;101639.44;;;10.77;100.00
29909;BME280;36247;51.952;6.146;2022-10-13T04:11:09;101644.88;;;10.82;100.00
29909;BME280;36247;51.952;6.146;2022-10-13T04:13:38;101638.72;;;10.83;100.00
29909;BME280;36247;51.952;6.146;2022-10-13T04:16:06;101638.75;;;10.85;100.00
29909;BME280;36247;51.952;6.146;2022-10-13T04:18:32;101639.78;;;10.90;100.00
29909;BME280;36247;51.952;6.146;2022-10-13T04:20:58;101646.00;;;10.92;100.00
29909;BME280;36247;51.952;6.146;2022-10-13T04:23:24;101627.44;;;10.92;100.00
29909;BME280;36247;51.952;6.146;2022-10-13T04:25:49;101630.19;;;10.95;100.00
29909;BME280;36247;51.952;6.146;2022-10-13T04:28:15;101624.06;;;10.98;100.00
29909;BME280;36247;51.952;6.146;2022-10-13T04:30:40;101628.44;;;10.97;100.00
29909;BME280;36247;51.952;6.146;2022-10-13T04:33:06;101617.03;;;11.00;100.00
29909;BME280;36247;51.952;6.146;2022-10-13T04:35:32;101623.06;;;10.94;100.00
29909;BME280;36247;51.952;6.146;2022-10-13T04:37:57;101619.56;;;10.95;100.00
29909;BME280;36247;51.952;6.146;2022-10-13T04:40:24;101609.84;;;10.96;100.00
29909;BME280;36247;51.952;6.146;2022-10-13T04:42:50;101612.53;;;10.97;100.00
29909;BME280;36247;51.952;6.146;2022-10-13T04:45:16;101608.19;;;10.99;100.00
29909;BME280;36247;51.952;6.146;2022-10-13T04:47:43;101610.84;;;10.99;100.00
29909;BME280;36247;51.952;6.146;2022-10-13T04:50:09;101596.59;;;10.96;100.00
29909;BME280;36247;51.952;6.146;2022-10-13T04:52:35;101605.41;;;10.93;100.00
29909;BME280;36247;51.952;6.146;2022-10-13T04:55:00;101604.59;;;10.97;100.00
29909;BME280;36247;51.952;6.146;2022-10-13T04:57:26;101596.59;;;10.96;100.00
29909;BME280;36247;51.952;6.146;2022-10-13T04:59:51;101596.56;;;10.94;100.00
29909;BME280;36247;51.952;6.146;2022-10-13T05:02:17;101592.09;;;10.91;100.00
29909;BME280;36247;51.952;6.146;2022-10-13T05:04:43;101601.88;;;10.94;100.00
29909;BME280;36247;51.952;6.146;2022-10-13T05:07:08;101612.50;;;10.96;100.00
29909;BME280;36247;51.952;6.146;2022-10-13T05:09:34;101608.09;;;10.94;100.00
29909;BME280;36247;51.952;6.146;2022-10-13T05:11:59;101607.16;;;10.94;100.00
29909;BME280;36247;51.952;6.146;2022-10-13T05:14:24;101607.25;;;10.97;100.00
29909;BME280;36247;51.952;6.146;2022-10-13T05:16:50;101593.91;;;10.94;100.00
29909;BME280;36247;51.952;6.146;2022-10-13T05:19:15;101597.53;;;10.96;100.00
29909;BME280;36247;51.952;6.146;2022-10-13T05:21:41;101591.34;;;10.97;100.00
29909;BME280;36247;51.952;6.146;2022-10-13T05:24:07;101595.75;;;10.97;100.00
29909;BME280;36247;51.952;6.146;2022-10-13T05:26:39;101584.97;;;10.89;100.00
29909;BME280;36247;51.952;6.146;2022-10-13T05:29:05;101581.34;;;10.85;100.00
29909;BME280;36247;51.952;6.146;2022-10-13T05:31:31;101580.50;;;10.88;100.00
29909;BME280;36247;51.952;6.146;2022-10-13T05:33:58;101585.75;;;10.85;100.00
29909;BME280;36247;51.952;6.146;2022-10-13T05:36:29;101595.53;;;10.87;100.00
29909;BME280;36247;51.952;6.146;2022-10-13T05:38:58;101610.41;;;10.82;100.00
29909;BME280;36247;51.952;6.146;2022-10-13T05:41:26;101614.97;;;10.88;100.00
29909;BME280;36247;51.952;6.146;2022-10-13T05:43:53;101613.25;;;10.88;100.00
29909;BME280;36247;51.952;6.146;2022-10-13T05:46:22;101603.38;;;10.83;100.00
29909;BME280;36247;51.952;6.146;2022-10-13T05:48:48;101615.75;;;10.84;100.00
29909;BME280;36247;51.952;6.146;2022-10-13T05:51:19;101610.44;;;10.84;100.00
29909;BME280;36247;51.952;6.146;2022-10-13T05:53:52;101600.84;;;10.87;100.00
29909;BME280;36247;51.952;6.146;2022-10-13T05:56:22;101612.34;;;10.89;100.00
29909;BME280;36247;51.952;6.146;2022-10-13T05:58:53;101606.28;;;10.93;100.00
29909;BME280;36247;51.952;6.146;2022-10-13T06:01:24;101612.53;;;10.97;100.00
29909;BME280;36247;51.952;6.146;2022-10-13T06:03:52;101616.13;;;10.98;100.00
29909;BME280;36247;51.952;6.146;2022-10-13T06:06:21;101603.78;;;11.00;100.00
29909;BME280;36247;51.952;6.146;2022-10-13T06:08:49;101609.13;;;11.01;100.00
29909;BME280;36247;51.952;6.146;2022-10-13T06:11:15;101605.66;;;11.04;100.00
29909;BME280;36247;51.952;6.146;2022-10-13T06:13:41;101610.91;;;11.02;100.00
29909;BME280;36247;51.952;6.146;2022-10-13T06:16:06;101614.41;;;11.01;100.00
29909;BME280;36247;51.952;6.146;2022-10-13T06:18:32;101610.84;;;10.99;100.00
29909;BME280;36247;51.952;6.146;2022-10-13T06:20:57;101616.22;;;11.02;100.00
29909;BME280;36247;51.952;6.146;2022-10-13T06:23:22;101607.41;;;11.03;100.00
29909;BME280;36247;51.952;6.146;2022-10-13T06:25:50;101604.84;;;11.06;100.00
29909;BME280;36247;51.952;6.146;2022-10-13T06:28:16;101599.66;;;11.11;100.00
29909;BME280;36247;51.952;6.146;2022-10-13T06:30:46;101596.00;;;11.07;100.00
29909;BME280;36247;51.952;6.146;2022-10-13T06:33:19;101594.41;;;11.14;100.00
29909;BME280;36247;51.952;6.146;2022-10-13T06:35:45;101582.03;;;11.15;100.00
29909;BME280;36247;51.952;6.146;2022-10-13T06:38:11;101589.25;;;11.20;100.00
29909;BME280;36247;51.952;6.146;2022-10-13T06:40:38;101589.41;;;11.28;100.00
29909;BME280;36247;51.952;6.146;2022-10-13T06:43:04;101592.28;;;11.37;100.00
29909;BME280;36247;51.952;6.146;2022-10-13T06:45:38;101587.91;;;11.39;100.00
29909;BME280;36247;51.952;6.146;2022-10-13T06:48:05;101576.59;;;11.46;100.00
29909;BME280;36247;51.952;6.146;2022-10-13T06:50:30;101587.25;;;11.50;100.00
29909;BME280;36247;51.952;6.146;2022-10-13T06:52:56;101594.50;;;11.58;100.00
29909;BME280;36247;51.952;6.146;2022-10-13T06:55:22;101576.84;;;11.59;100.00
29909;BME280;36247;51.952;6.146;2022-10-13T06:57:47;101581.28;;;11.60;100.00
29909;BME280;36247;51.952;6.146;2022-10-13T07:00:13;101577.81;;;11.64;100.00
29909;BME280;36247;51.952;6.146;2022-10-13T07:02:39;101582.22;;;11.62;100.00
29909;BME280;36247;51.952;6.146;2022-10-13T07:05:05;101588.56;;;11.70;100.00
29909;BME280;36247;51.952;6.146;2022-10-13T07:07:30;101577.91;;;11.69;100.00
29909;BME280;36247;51.952;6.146;2022-10-13T07:09:56;101573.59;;;11.72;100.00
29909;BME280;36247;51.952;6.146;2022-10-13T07:12:21;101580.56;;;11.69;100.00
29909;BME280;36247;51.952;6.146;2022-10-13T07:14:47;101579.72;;;11.70;100.00
29909;BME280;36247;51.952;6.146;2022-10-13T07:17:13;101580.59;;;11.70;100.00
29909;BME280;36247;51.952;6.146;2022-10-13T07:19:39;101574.41;;;11.70;100.00
29909;BME280;36247;51.952;6.146;2022-10-13T07:22:04;101572.66;;;11.72;100.00
29909;BME280;36247;51.952;6.146;2022-10-13T07:24:30;101585.13;;;11.74;100.00
29909;BME280;36247;51.952;6.146;2022-10-13T07:26:55;101578.91;;;11.74;100.00
29909;BME280;36247;51.952;6.146;2022-10-13T07:29:21;101573.69;;;11.77;100.00
29909;BME280;36247;51.952;6.146;2022-10-13T07:31:46;101578.13;;;11.78;100.00
29909;BME280;36247;51.952;6.146;2022-10-13T07:34:13;101583.41;;;11.76;100.00
29909;BME280;36247;51.952;6.146;2022-10-13T07:36:39;101580.81;;;11.79;100.00
29909;BME280;36247;51.952;6.146;2022-10-13T07:39:06;101577.16;;;11.74;100.00
29909;BME280;36247;51.952;6.146;2022-10-13T07:41:34;101585.22;;;11.79;100.00
29909;BME280;36247;51.952;6.146;2022-10-13T07:44:00;101581.69;;;11.80;100.00
29909;BME280;36247;51.952;6.146;2022-10-13T07:46:25;101590.66;;;11.85;100.00
29909;BME280;36247;51.952;6.146;2022-10-13T07:48:52;101588.03;;;11.88;100.00
29909;BME280;36247;51.952;6.146;2022-10-13T07:51:19;101585.34;;;11.85;100.00
29909;BME280;36247;51.952;6.146;2022-10-13T07:53:45;101589.84;;;11.89;100.00
29909;BME280;36247;51.952;6.146;2022-10-13T07:56:13;101585.44;;;11.90;100.00
29909;BME280;36247;51.952;6.146;2022-10-13T07:58:42;101573.03;;;11.89;100.00
29909;BME280;36247;51.952;6.146;2022-10-13T08:01:09;101593.66;;;12.01;100.00
29909;BME280;36247;51.952;6.146;2022-10-13T08:03:37;101585.72;;;12.02;100.00
29909;BME280;36247;51.952;6.146;2022-10-13T08:06:04;101585.72;;;12.02;100.00
29909;BME280;36247;51.952;6.146;2022-10-13T08:08:30;101580.53;;;12.08;100.00
29909;BME280;36247;51.952;6.146;2022-10-13T08:11:04;101575.22;;;12.08;100.00
29909;BME280;36247;51.952;6.146;2022-10-13T08:13:30;101583.31;;;12.14;100.00
29909;BME280;36247;51.952;6.146;2022-10-13T08:15:59;101578.09;;;12.21;100.00
29909;BME280;36247;51.952;6.146;2022-10-13T08:18:27;101566.50;;;12.15;100.00
29909;BME280;36247;51.952;6.146;2022-10-13T08:20:53;101567.47;;;12.21;100.00
29909;BME280;36247;51.952;6.146;2022-10-13T08:23:19;101576.44;;;12.26;100.00
29909;BME280;36247;51.952;6.146;2022-10-13T08:25:48;101573.78;;;12.26;100.00
29909;BME280;36247;51.952;6.146;2022-10-13T08:28:17;101576.50;;;12.29;100.00
29909;BME280;36247;51.952;6.146;2022-10-13T08:30:43;101584.56;;;12.33;100.00
29909;BME280;36247;51.952;6.146;2022-10-13T08:33:09;101581.91;;;12.33;100.00
29909;BME280;36247;51.952;6.146;2022-10-13T08:35:34;101582.84;;;12.37;100.00
29909;BME280;36247;51.952;6.146;2022-10-13T08:38:00;101572.19;;;12.37;100.00
29909;BME280;36247;51.952;6.146;2022-10-13T08:40:27;101574.13;;;12.46;100.00
29909;BME280;36247;51.952;6.146;2022-10-13T08:42:53;101580.38;;;12.49;100.00
29909;BME280;36247;51.952;6.146;2022-10-13T08:45:30;101585.78;;;12.52;100.00
29909;BME280;36247;51.952;6.146;2022-10-13T08:48:01;101581.59;;;12.67;100.00
29909;BME280;36247;51.952;6.146;2022-10-13T08:50:31;101574.66;;;12.75;100.00
29909;BME280;36247;51.952;6.146;2022-10-13T08:53:00;101582.72;;;12.81;100.00
29909;BME280;36247;51.952;6.146;2022-10-13T08:55:53;101579.13;;;12.79;100.00
29909;BME280;36247;51.952;6.146;2022-10-13T09:00:44;101570.44;;;12.90;100.00
29909;BME280;36247;51.952;6.146;2022-10-13T09:03:29;101571.47;;;12.98;100.00
29909;BME280;36247;51.952;6.146;2022-10-13T09:06:14;101568.78;;;12.96;100.00
29909;BME280;36247;51.952;6.146;2022-10-13T09:08:51;101567.00;;;12.97;100.00
29909;BME280;36247;51.952;6.146;2022-10-13T09:11:19;101568.13;;;13.11;100.00
29909;BME280;36247;51.952;6.146;2022-10-13T09:13:45;101567.25;;;13.12;100.00
29909;BME280;36247;51.952;6.146;2022-10-13T09:16:10;101570.06;;;13.21;100.00
29909;BME280;36247;51.952;6.146;2022-10-13T09:18:37;101565.75;;;13.33;100.00
29909;BME280;36247;51.952;6.146;2022-10-13T09:21:21;101562.44;;;13.46;100.00
29909;BME280;36247;51.952;6.146;2022-10-13T09:23:51;101563.69;;;13.74;100.00
29909;BME280;36247;51.952;6.146;2022-10-13T09:26:23;101563.69;;;13.76;100.00
29909;BME280;36247;51.952;6.146;2022-10-13T09:28:50;101555.63;;;13.70;100.00
29909;BME280;36247;51.952;6.146;2022-10-13T09:31:22;101557.47;;;13.74;100.00
29909;BME280;36247;51.952;6.146;2022-10-13T09:34:08;101547.09;;;13.99;100.00
29909;BME280;36247;51.952;6.146;2022-10-13T09:36:36;101538.28;;;14.06;100.00
29909;BME280;36247;51.952;6.146;2022-10-13T09:39:13;101534.88;;;14.21;100.00
29909;BME280;36247;51.952;6.146;2022-10-13T09:41:41;101534.25;;;14.46;100.00
29909;BME280;36247;51.952;6.146;2022-10-13T09:44:18;101531.66;;;14.56;100.00
29909;BME280;36247;51.952;6.146;2022-10-13T09:46:53;101535.91;;;14.32;100.00
29909;BME280;36247;51.952;6.146;2022-10-13T09:49:42;101531.75;;;14.62;100.00
29909;BME280;36247;51.952;6.146;2022-10-13T09:57:19;101539.00;;;14.80;100.00
29909;BME280;36247;51.952;6.146;2022-10-13T09:59:50;101538.72;;;14.51;100.00
29909;BME280;36247;51.952;6.146;2022-10-13T10:02:34;101541.28;;;14.38;100.00
29909;BME280;36247;51.952;6.146;2022-10-13T10:05:09;101540.47;;;14.47;100.00
29909;BME280;36247;51.952;6.146;2022-10-13T10:07:39;101527.34;;;14.67;100.00
29909;BME280;36247;51.952;6.146;2022-10-13T10:10:11;101527.47;;;14.83;100.00
29909;BME280;36247;51.952;6.146;2022-10-13T10:12:41;101526.59;;;14.88;100.00
29909;BME280;36247;51.952;6.146;2022-10-13T10:15:20;101532.97;;;15.12;100.00
29909;BME280;36247;51.952;6.146;2022-10-13T10:17:55;101531.81;;;14.70;100.00
29909;BME280;36247;51.952;6.146;2022-10-13T10:20:44;101527.25;;;14.59;100.00
29909;BME280;36247;51.952;6.146;2022-10-13T10:26:02;101527.38;;;14.73;100.00
29909;BME280;36247;51.952;6.146;2022-10-13T10:28:42;101527.22;;;14.58;100.00
29909;BME280;36247;51.952;6.146;2022-10-13T10:31:24;101527.34;;;14.69;100.00
29909;BME280;36247;51.952;6.146;2022-10-13T10:37:14;101521.78;;;14.44;100.00
29909;BME280;36247;51.952;6.146;2022-10-13T10:41:06;101519.13;;;14.44;100.00
29909;BME280;36247;51.952;6.146;2022-10-13T10:43:13;101529.72;;;14.35;100.00
29909;BME280;36247;51.952;6.146;2022-10-13T10:45:46;101528.69;;;14.22;100.00
29909;BME280;36247;51.952;6.146;2022-10-13T10:48:18;101530.34;;;14.12;100.00
29909;BME280;36247;51.952;6.146;2022-10-13T10:50:45;101523.22;;;14.06;100.00
29909;BME280;36247;51.952;6.146;2022-10-13T10:53:32;101519.66;;;14.07;100.00
29909;BME280;36247;51.952;6.146;2022-10-13T11:01:42;101510.69;;;13.96;100.00
29909;BME280;36247;51.952;6.146;2022-10-13T11:06:49;101504.53;;;14.02;100.00
29909;BME280;36247;51.952;6.146;2022-10-13T11:17:32;101506.13;;;13.87;100.00
29909;BME280;36247;51.952;6.146;2022-10-13T11:19:58;101510.41;;;13.74;100.00
29909;BME280;36247;51.952;6.146;2022-10-13T11:22:28;101513.00;;;13.68;100.00
29909;BME280;36247;51.952;6.146;2022-10-13T11:24:58;101503.13;;;13.58;100.00
29909;BME280;36247;51.952;6.146;2022-10-13T11:27:27;101503.78;;;13.40;100.00
29909;BME280;36247;51.952;6.146;2022-10-13T11:30:02;101510.91;;;13.41;100.00
29909;BME280;36247;51.952;6.146;2022-10-13T11:40:32;101512.34;;;13.17;100.00
29909;BME280;36247;51.952;6.146;2022-10-13T11:43:32;101508.91;;;13.26;100.00
29909;BME280;36247;51.952;6.146;2022-10-13T11:54:59;101498.94;;;13.11;100.00
29909;BME280;36247;51.952;6.146;2022-10-13T11:57:27;101501.53;;;13.05;100.00
29909;BME280;36247;51.952;6.146;2022-10-13T11:59:54;101500.53;;;12.98;100.00
29909;BME280;36247;51.952;6.146;2022-10-13T12:02:49;101485.47;;;12.97;100.00
29909;BME280;36247;51.952;6.146;2022-10-13T12:05:24;101485.28;;;12.86;100.00
29909;BME280;36247;51.952;6.146;2022-10-13T12:07:53;101472.94;;;12.88;100.00
29909;BME280;36247;51.952;6.146;2022-10-13T12:10:27;101480.06;;;12.93;100.00
29909;BME280;36247;51.952;6.146;2022-10-13T12:12:54;101476.53;;;12.94;100.00
29909;BME280;36247;51.952;6.146;2022-10-13T12:15:30;101478.34;;;12.95;100.00
29909;BME280;36247;51.952;6.146;2022-10-13T12:17:56;101476.66;;;13.03;100.00
29909;BME280;36247;51.952;6.146;2022-10-13T12:20:26;101488.00;;;12.91;100.00
29909;BME280;36247;51.952;6.146;2022-10-13T12:22:53;101481.78;;;12.87;100.00
29909;BME280;36247;51.952;6.146;2022-10-13T12:25:21;101482.59;;;12.85;100.00
29909;BME280;36247;51.952;6.146;2022-10-13T12:27:52;101479.06;;;12.84;100.00
29909;BME280;36247;51.952;6.146;2022-10-13T12:30:23;101476.59;;;12.98;100.00
29909;BME280;36247;51.952;6.146;2022-10-13T12:32:52;101477.41;;;12.94;100.00
29909;BME280;36247;51.952;6.146;2022-10-13T12:35:23;101463.22;;;12.92;100.00
29909;BME280;36247;51.952;6.146;2022-10-13T12:37:50;101464.22;;;13.00;100.00
29909;BME280;36247;51.952;6.146;2022-10-13T12:40:16;101473.06;;;12.98;100.00
29909;BME280;36247;51.952;6.146;2022-10-13T12:42:43;101457.91;;;12.94;100.00
29909;BME280;36247;51.952;6.146;2022-10-13T12:45:14;101467.69;;;12.95;100.00
29909;BME280;36247;51.952;6.146;2022-10-13T12:52:53;101462.41;;;12.96;100.00
29909;BME280;36247;51.952;6.146;2022-10-13T12:55:20;101458.69;;;12.86;100.00
29909;BME280;36247;51.952;6.146;2022-10-13T12:57:48;101454.38;;;12.93;100.00
29909;BME280;36247;51.952;6.146;2022-10-13T13:03:01;101455.34;;;13.01;100.00
29909;BME280;36247;51.952;6.146;2022-10-13T13:08:01;101451.00;;;13.05;100.00
29909;BME280;36247;51.952;6.146;2022-10-13T13:10:28;101451.00;;;13.05;100.00
29909;BME280;36247;51.952;6.146;2022-10-13T13:12:54;101443.03;;;13.07;100.00
29909;BME280;36247;51.952;6.146;2022-10-13T13:17:49;101443.00;;;13.05;100.00
29909;BME280;36247;51.952;6.146;2022-10-13T13:20:23;101451.06;;;13.10;100.00
29909;BME280;36247;51.952;6.146;2022-10-13T13:22:49;101452.88;;;13.12;100.00
29909;BME280;36247;51.952;6.146;2022-10-13T13:25:15;101460.81;;;13.11;100.00
29909;BME280;36247;51.952;6.146;2022-10-13T13:27:40;101458.94;;;13.02;100.00
29909;BME280;36247;51.952;6.146;2022-10-13T13:30:11;101466.91;;;13.02;100.00
29909;BME280;36247;51.952;6.146;2022-10-13T13:32:38;101465.06;;;12.96;100.00
29909;BME280;36247;51.952;6.146;2022-10-13T13:35:04;101463.28;;;12.98;100.00
29909;BME280;36247;51.952;6.146;2022-10-13T13:37:39;101465.06;;;12.96;100.00
29909;BME280;36247;51.952;6.146;2022-10-13T13:40:09;101464.13;;;12.94;100.00
29909;BME280;36247;51.952;6.146;2022-10-13T13:42:38;101461.50;;;12.96;100.00
29909;BME280;36247;51.952;6.146;2022-10-13T13:45:03;101455.22;;;12.91;100.00
29909;BME280;36247;51.952;6.146;2022-10-13T13:47:29;101454.41;;;12.95;100.00
29909;BME280;36247;51.952;6.146;2022-10-13T13:49:55;101455.28;;;12.95;100.00
29909;BME280;36247;51.952;6.146;2022-10-13T13:52:22;101450.72;;;12.86;100.00
29909;BME280;36247;51.952;6.146;2022-10-13T13:54:49;101444.63;;;12.94;100.00
29909;BME280;36247;51.952;6.146;2022-10-13T13:57:20;101437.50;;;12.93;100.00
29909;BME280;36247;51.952;6.146;2022-10-13T13:59:46;101444.53;;;12.87;100.00
29909;BME280;36247;51.952;6.146;2022-10-13T14:02:22;101446.44;;;12.96;100.00
29909;BME280;36247;51.952;6.146;2022-10-13T14:04:48;101427.75;;;12.90;100.00
29909;BME280;36247;51.952;6.146;2022-10-13T14:07:16;101434.06;;;13.00;100.00
29909;BME280;36247;51.952;6.146;2022-10-13T14:09:53;101432.28;;;12.97;100.00
29909;BME280;36247;51.952;6.146;2022-10-13T14:12:19;101425.03;;;12.85;100.00